sensor_id;sensor_type;location;lat;lon;timestamp;P1;durP1;ratioP1;P2;durP2;ratioP2
80185;SDS011;69904;52.122;5.422;2024-02-21T00:01:16;4.38;;;1.50;;
80185;SDS011;69904;52.122;5.422;2024-02-21T00:03:43;2.95;;;1.65;;
80185;SDS011;69904;52.122;5.422;2024-02-21T00:06:09;3.05;;;1.80;;
80185;SDS011;69904;52.122;5.422;2024-02-21T00:08:36;5.65;;;2.00;;
80185;SDS011;69904;52.122;5.422;2024-02-21T00:11:03;4.22;;;1.45;;
80185;SDS011;69904;52.122;5.422;2024-02-21T00:13:30;6.22;;;2.30;;
80185;SDS011;69904;52.122;5.422;2024-02-21T00:15:57;5.28;;;1.83;;
80185;SDS011;69904;52.122;5.422;2024-02-21T00:18:24;5.40;;;1.65;;
80185;SDS011;69904;52.122;5.422;2024-02-21T00:20:55;9.23;;;2.00;;
80185;SDS011;69904;52.122;5.422;2024-02-21T00:23:22;8.68;;;2.75;;
80185;SDS011;69904;52.122;5.422;2024-02-21T00:25:48;3.58;;;2.08;;
80185;SDS011;69904;52.122;5.422;2024-02-21T00:28:15;4.38;;;1.25;;
80185;SDS011;69904;52.122;5.422;2024-02-21T00:30:41;7.40;;;2.45;;
80185;SDS011;69904;52.122;5.422;2024-02-21T00:33:08;7.75;;;1.38;;
80185;SDS011;69904;52.122;5.422;2024-02-21T00:35:34;3.28;;;1.60;;
80185;SDS011;69904;52.122;5.422;2024-02-21T00:38:01;18.15;;;2.65;;
80185;SDS011;69904;52.122;5.422;2024-02-21T00:40:29;6.07;;;1.90;;
80185;SDS011;69904;52.122;5.422;2024-02-21T00:42:56;5.53;;;1.55;;
80185;SDS011;69904;52.122;5.422;2024-02-21T00:45:23;5.57;;;1.73;;
80185;SDS011;69904;52.122;5.422;2024-02-21T00:47:49;4.18;;;1.42;;
80185;SDS011;69904;52.122;5.422;2024-02-21T00:50:16;5.78;;;1.58;;
80185;SDS011;69904;52.122;5.422;2024-02-21T00:52:43;4.43;;;1.60;;
80185;SDS011;69904;52.122;5.422;2024-02-21T00:55:10;4.93;;;1.88;;
80185;SDS011;69904;52.122;5.422;2024-02-21T00:57:37;5.88;;;1.90;;
80185;SDS011;69904;52.122;5.422;2024-02-21T01:00:03;7.22;;;1.88;;
80185;SDS011;69904;52.122;5.422;2024-02-21T01:02:30;5.40;;;1.65;;
80185;SDS011;69904;52.122;5.422;2024-02-21T01:05:00;4.38;;;1.85;;
80185;SDS011;69904;52.122;5.422;2024-02-21T01:07:26;4.75;;;1.92;;
80185;SDS011;69904;52.122;5.422;2024-02-21T01:09:53;7.38;;;2.55;;
80185;SDS011;69904;52.122;5.422;2024-02-21T01:12:19;4.45;;;1.83;;
80185;SDS011;69904;52.122;5.422;2024-02-21T01:14:46;8.65;;;2.53;;
80185;SDS011;69904;52.122;5.422;2024-02-21T01:17:13;6.78;;;3.05;;
80185;SDS011;69904;52.122;5.422;2024-02-21T01:19:39;10.48;;;2.05;;
80185;SDS011;69904;52.122;5.422;2024-02-21T01:22:06;7.03;;;2.05;;
80185;SDS011;69904;52.122;5.422;2024-02-21T01:24:32;9.73;;;2.47;;
80185;SDS011;69904;52.122;5.422;2024-02-21T01:26:59;9.90;;;2.35;;
80185;SDS011;69904;52.122;5.422;2024-02-21T01:29:25;6.65;;;1.92;;
80185;SDS011;69904;52.122;5.422;2024-02-21T01:31:52;9.80;;;2.20;;
80185;SDS011;69904;52.122;5.422;2024-02-21T01:34:18;8.15;;;2.35;;
80185;SDS011;69904;52.122;5.422;2024-02-21T01:36:45;11.02;;;2.35;;
80185;SDS011;69904;52.122;5.422;2024-02-21T01:39:12;5.43;;;1.80;;
80185;SDS011;69904;52.122;5.422;2024-02-21T01:41:38;13.23;;;3.00;;
80185;SDS011;69904;52.122;5.422;2024-02-21T01:44:05;7.53;;;2.30;;
80185;SDS011;69904;52.122;5.422;2024-02-21T01:46:31;8.02;;;2.58;;
80185;SDS011;69904;52.122;5.422;2024-02-21T01:48:58;5.53;;;2.42;;
80185;SDS011;69904;52.122;5.422;2024-02-21T01:51:25;4.88;;;2.53;;
80185;SDS011;69904;52.122;5.422;2024-02-21T01:53:53;11.77;;;3.53;;
80185;SDS011;69904;52.122;5.422;2024-02-21T01:56:21;7.65;;;2.13;;
80185;SDS011;69904;52.122;5.422;2024-02-21T01:58:48;9.65;;;2.30;;
80185;SDS011;69904;52.122;5.422;2024-02-21T02:01:15;7.95;;;2.55;;
80185;SDS011;69904;52.122;5.422;2024-02-21T02:03:47;6.03;;;2.10;;
80185;SDS011;69904;52.122;5.422;2024-02-21T02:06:15;11.85;;;2.55;;
80185;SDS011;69904;52.122;5.422;2024-02-21T02:08:41;5.13;;;2.15;;
80185;SDS011;69904;52.122;5.422;2024-02-21T02:11:08;7.57;;;2.55;;
80185;SDS011;69904;52.122;5.422;2024-02-21T02:13:35;5.80;;;2.20;;
80185;SDS011;69904;52.122;5.422;2024-02-21T02:16:02;8.18;;;3.03;;
80185;SDS011;69904;52.122;5.422;2024-02-21T02:18:30;8.63;;;2.15;;
80185;SDS011;69904;52.122;5.422;2024-02-21T02:20:56;5.35;;;3.17;;
80185;SDS011;69904;52.122;5.422;2024-02-21T02:26:00;7.30;;;2.15;;
80185;SDS011;69904;52.122;5.422;2024-02-21T02:28:29;11.68;;;2.88;;
80185;SDS011;69904;52.122;5.422;2024-02-21T02:30:56;7.55;;;2.33;;
80185;SDS011;69904;52.122;5.422;2024-02-21T02:33:22;6.97;;;2.42;;
80185;SDS011;69904;52.122;5.422;2024-02-21T02:38:16;5.95;;;2.50;;
80185;SDS011;69904;52.122;5.422;2024-02-21T02:40:43;5.18;;;2.58;;
80185;SDS011;69904;52.122;5.422;2024-02-21T02:43:09;10.35;;;2.47;;
80185;SDS011;69904;52.122;5.422;2024-02-21T02:45:36;9.68;;;2.55;;
80185;SDS011;69904;52.122;5.422;2024-02-21T02:48:03;9.95;;;2.63;;
80185;SDS011;69904;52.122;5.422;2024-02-21T02:50:30;7.30;;;2.70;;
80185;SDS011;69904;52.122;5.422;2024-02-21T02:52:57;8.55;;;2.72;;
80185;SDS011;69904;52.122;5.422;2024-02-21T02:55:24;7.70;;;2.58;;
80185;SDS011;69904;52.122;5.422;2024-02-21T02:57:52;5.20;;;2.28;;
80185;SDS011;69904;52.122;5.422;2024-02-21T03:00:19;6.57;;;2.40;;
80185;SDS011;69904;52.122;5.422;2024-02-21T03:02:46;6.00;;;3.10;;
80185;SDS011;69904;52.122;5.422;2024-02-21T03:05:15;10.38;;;2.90;;
80185;SDS011;69904;52.122;5.422;2024-02-21T03:07:43;5.45;;;2.65;;
80185;SDS011;69904;52.122;5.422;2024-02-21T03:10:11;8.50;;;2.85;;
80185;SDS011;69904;52.122;5.422;2024-02-21T03:12:39;7.78;;;2.88;;
80185;SDS011;69904;52.122;5.422;2024-02-21T03:15:05;7.38;;;2.67;;
80185;SDS011;69904;52.122;5.422;2024-02-21T03:17:34;7.75;;;2.20;;
80185;SDS011;69904;52.122;5.422;2024-02-21T03:22:37;6.43;;;2.15;;
80185;SDS011;69904;52.122;5.422;2024-02-21T03:25:04;10.77;;;2.60;;
80185;SDS011;69904;52.122;5.422;2024-02-21T03:27:31;8.32;;;2.50;;
80185;SDS011;69904;52.122;5.422;2024-02-21T03:29:57;8.93;;;2.63;;
80185;SDS011;69904;52.122;5.422;2024-02-21T03:32:24;7.22;;;3.13;;
80185;SDS011;69904;52.122;5.422;2024-02-21T03:34:50;3.42;;;2.22;;
80185;SDS011;69904;52.122;5.422;2024-02-21T03:37:17;11.02;;;2.53;;
80185;SDS011;69904;52.122;5.422;2024-02-21T03:39:43;5.72;;;2.35;;
80185;SDS011;69904;52.122;5.422;2024-02-21T03:42:10;13.10;;;3.50;;
80185;SDS011;69904;52.122;5.422;2024-02-21T03:44:36;6.45;;;2.50;;
80185;SDS011;69904;52.122;5.422;2024-02-21T03:47:03;6.30;;;2.67;;
80185;SDS011;69904;52.122;5.422;2024-02-21T03:49:29;6.47;;;2.70;;
80185;SDS011;69904;52.122;5.422;2024-02-21T03:51:56;8.60;;;2.83;;
80185;SDS011;69904;52.122;5.422;2024-02-21T03:54:22;12.70;;;3.13;;
80185;SDS011;69904;52.122;5.422;2024-02-21T03:56:49;6.43;;;3.05;;
80185;SDS011;69904;52.122;5.422;2024-02-21T03:59:16;7.15;;;2.92;;
80185;SDS011;69904;52.122;5.422;2024-02-21T04:01:42;12.02;;;3.75;;
80185;SDS011;69904;52.122;5.422;2024-02-21T04:04:09;6.88;;;2.85;;
80185;SDS011;69904;52.122;5.422;2024-02-21T04:06:36;6.13;;;1.75;;
80185;SDS011;69904;52.122;5.422;2024-02-21T04:09:03;9.32;;;2.60;;
80185;SDS011;69904;52.122;5.422;2024-02-21T04:11:29;5.20;;;2.67;;
80185;SDS011;69904;52.122;5.422;2024-02-21T04:13:56;9.25;;;2.55;;
80185;SDS011;69904;52.122;5.422;2024-02-21T04:16:23;6.72;;;2.67;;
80185;SDS011;69904;52.122;5.422;2024-02-21T04:18:50;10.82;;;3.05;;
80185;SDS011;69904;52.122;5.422;2024-02-21T04:21:16;6.90;;;2.40;;
80185;SDS011;69904;52.122;5.422;2024-02-21T04:23:43;6.97;;;2.20;;
80185;SDS011;69904;52.122;5.422;2024-02-21T04:26:09;7.55;;;2.65;;
80185;SDS011;69904;52.122;5.422;2024-02-21T04:28:36;5.13;;;2.40;;
80185;SDS011;69904;52.122;5.422;2024-02-21T04:31:03;7.65;;;2.95;;
80185;SDS011;69904;52.122;5.422;2024-02-21T04:33:30;11.13;;;3.35;;
80185;SDS011;69904;52.122;5.422;2024-02-21T04:35:56;9.65;;;2.83;;
80185;SDS011;69904;52.122;5.422;2024-02-21T04:38:24;8.98;;;2.88;;
80185;SDS011;69904;52.122;5.422;2024-02-21T04:40:51;9.02;;;2.72;;
80185;SDS011;69904;52.122;5.422;2024-02-21T04:43:18;4.50;;;2.97;;
80185;SDS011;69904;52.122;5.422;2024-02-21T04:45:44;5.32;;;2.58;;
80185;SDS011;69904;52.122;5.422;2024-02-21T04:48:11;6.35;;;2.60;;
80185;SDS011;69904;52.122;5.422;2024-02-21T04:50:37;4.13;;;2.63;;
80185;SDS011;69904;52.122;5.422;2024-02-21T04:53:04;8.38;;;2.88;;
80185;SDS011;69904;52.122;5.422;2024-02-21T04:55:31;5.68;;;2.90;;
80185;SDS011;69904;52.122;5.422;2024-02-21T04:57:57;9.60;;;2.97;;
80185;SDS011;69904;52.122;5.422;2024-02-21T05:00:24;6.82;;;2.13;;
80185;SDS011;69904;52.122;5.422;2024-02-21T05:02:50;6.45;;;2.60;;
80185;SDS011;69904;52.122;5.422;2024-02-21T05:05:16;6.65;;;3.40;;
80185;SDS011;69904;52.122;5.422;2024-02-21T05:07:43;6.43;;;2.70;;
80185;SDS011;69904;52.122;5.422;2024-02-21T05:10:10;7.40;;;2.38;;
80185;SDS011;69904;52.122;5.422;2024-02-21T05:12:36;6.20;;;3.03;;
80185;SDS011;69904;52.122;5.422;2024-02-21T05:15:03;8.38;;;2.80;;
80185;SDS011;69904;52.122;5.422;2024-02-21T05:17:30;6.18;;;3.00;;
80185;SDS011;69904;52.122;5.422;2024-02-21T05:19:56;5.78;;;3.08;;
80185;SDS011;69904;52.122;5.422;2024-02-21T05:22:23;5.05;;;3.03;;
80185;SDS011;69904;52.122;5.422;2024-02-21T05:24:49;8.07;;;3.22;;
80185;SDS011;69904;52.122;5.422;2024-02-21T05:27:16;5.93;;;2.33;;
80185;SDS011;69904;52.122;5.422;2024-02-21T05:29:42;6.97;;;3.60;;
80185;SDS011;69904;52.122;5.422;2024-02-21T05:32:09;6.95;;;3.47;;
80185;SDS011;69904;52.122;5.422;2024-02-21T05:34:35;6.13;;;2.45;;
80185;SDS011;69904;52.122;5.422;2024-02-21T05:37:02;7.88;;;3.40;;
80185;SDS011;69904;52.122;5.422;2024-02-21T05:39:29;5.25;;;2.88;;
80185;SDS011;69904;52.122;5.422;2024-02-21T05:41:56;6.05;;;2.25;;
80185;SDS011;69904;52.122;5.422;2024-02-21T05:44:22;5.75;;;2.80;;
80185;SDS011;69904;52.122;5.422;2024-02-21T05:46:49;7.22;;;3.58;;
80185;SDS011;69904;52.122;5.422;2024-02-21T05:49:15;7.63;;;3.55;;
80185;SDS011;69904;52.122;5.422;2024-02-21T05:51:42;5.55;;;2.42;;
80185;SDS011;69904;52.122;5.422;2024-02-21T05:54:08;8.38;;;3.38;;
80185;SDS011;69904;52.122;5.422;2024-02-21T05:56:35;7.43;;;3.30;;
80185;SDS011;69904;52.122;5.422;2024-02-21T05:59:01;10.68;;;3.78;;
80185;SDS011;69904;52.122;5.422;2024-02-21T06:01:28;8.70;;;3.67;;
80185;SDS011;69904;52.122;5.422;2024-02-21T06:03:54;6.78;;;3.28;;
80185;SDS011;69904;52.122;5.422;2024-02-21T06:06:21;9.50;;;3.83;;
80185;SDS011;69904;52.122;5.422;2024-02-21T06:08:48;5.38;;;3.20;;
80185;SDS011;69904;52.122;5.422;2024-02-21T06:11:15;7.85;;;3.42;;
80185;SDS011;69904;52.122;5.422;2024-02-21T06:13:42;8.93;;;3.50;;
80185;SDS011;69904;52.122;5.422;2024-02-21T06:16:08;5.82;;;3.10;;
80185;SDS011;69904;52.122;5.422;2024-02-21T06:18:35;8.23;;;3.80;;
80185;SDS011;69904;52.122;5.422;2024-02-21T06:23:28;8.13;;;4.18;;
80185;SDS011;69904;52.122;5.422;2024-02-21T06:25:55;9.45;;;3.58;;
80185;SDS011;69904;52.122;5.422;2024-02-21T06:28:21;7.13;;;3.83;;
80185;SDS011;69904;52.122;5.422;2024-02-21T06:30:48;9.63;;;4.05;;
80185;SDS011;69904;52.122;5.422;2024-02-21T06:33:14;7.57;;;4.18;;
80185;SDS011;69904;52.122;5.422;2024-02-21T06:35:41;12.40;;;5.55;;
80185;SDS011;69904;52.122;5.422;2024-02-21T06:38:09;6.90;;;4.22;;
80185;SDS011;69904;52.122;5.422;2024-02-21T06:40:35;11.07;;;5.15;;
80185;SDS011;69904;52.122;5.422;2024-02-21T06:43:05;11.52;;;5.25;;
80185;SDS011;69904;52.122;5.422;2024-02-21T06:45:32;9.43;;;4.63;;
80185;SDS011;69904;52.122;5.422;2024-02-21T06:47:59;14.32;;;4.63;;
80185;SDS011;69904;52.122;5.422;2024-02-21T06:50:27;9.50;;;5.00;;
80185;SDS011;69904;52.122;5.422;2024-02-21T06:52:54;11.23;;;5.25;;
80185;SDS011;69904;52.122;5.422;2024-02-21T06:55:20;16.08;;;5.18;;
80185;SDS011;69904;52.122;5.422;2024-02-21T06:57:47;11.43;;;6.22;;
80185;SDS011;69904;52.122;5.422;2024-02-21T07:00:14;9.55;;;5.28;;
80185;SDS011;69904;52.122;5.422;2024-02-21T07:02:42;12.55;;;6.28;;
80185;SDS011;69904;52.122;5.422;2024-02-21T07:05:08;15.07;;;6.57;;
80185;SDS011;69904;52.122;5.422;2024-02-21T07:07:35;13.13;;;6.13;;
80185;SDS011;69904;52.122;5.422;2024-02-21T07:10:01;21.17;;;6.53;;
80185;SDS011;69904;52.122;5.422;2024-02-21T07:12:28;15.80;;;6.60;;
80185;SDS011;69904;52.122;5.422;2024-02-21T07:14:54;12.55;;;6.22;;
80185;SDS011;69904;52.122;5.422;2024-02-21T07:17:21;11.20;;;6.07;;
80185;SDS011;69904;52.122;5.422;2024-02-21T07:19:48;10.60;;;5.03;;
80185;SDS011;69904;52.122;5.422;2024-02-21T07:22:14;13.52;;;5.07;;
80185;SDS011;69904;52.122;5.422;2024-02-21T07:24:41;12.73;;;5.93;;
80185;SDS011;69904;52.122;5.422;2024-02-21T07:27:07;10.10;;;5.05;;
80185;SDS011;69904;52.122;5.422;2024-02-21T07:29:34;10.82;;;5.65;;
80185;SDS011;69904;52.122;5.422;2024-02-21T07:32:00;13.48;;;5.78;;
80185;SDS011;69904;52.122;5.422;2024-02-21T07:34:27;12.07;;;4.18;;
80185;SDS011;69904;52.122;5.422;2024-02-21T07:36:55;10.73;;;4.78;;
80185;SDS011;69904;52.122;5.422;2024-02-21T07:41:48;10.55;;;4.90;;
80185;SDS011;69904;52.122;5.422;2024-02-21T07:44:15;9.50;;;4.28;;
80185;SDS011;69904;52.122;5.422;2024-02-21T07:46:42;9.30;;;4.35;;
80185;SDS011;69904;52.122;5.422;2024-02-21T07:49:08;8.43;;;4.18;;
80185;SDS011;69904;52.122;5.422;2024-02-21T07:51:35;10.52;;;4.53;;
80185;SDS011;69904;52.122;5.422;2024-02-21T07:56:30;8.13;;;3.72;;
80185;SDS011;69904;52.122;5.422;2024-02-21T07:58:57;11.82;;;3.70;;
80185;SDS011;69904;52.122;5.422;2024-02-21T08:01:24;8.70;;;4.15;;
80185;SDS011;69904;52.122;5.422;2024-02-21T08:03:51;12.80;;;5.22;;
80185;SDS011;69904;52.122;5.422;2024-02-21T08:06:17;8.60;;;4.25;;
80185;SDS011;69904;52.122;5.422;2024-02-21T08:08:44;9.40;;;4.43;;
80185;SDS011;69904;52.122;5.422;2024-02-21T08:11:10;7.85;;;4.15;;
80185;SDS011;69904;52.122;5.422;2024-02-21T08:13:37;11.98;;;3.90;;
80185;SDS011;69904;52.122;5.422;2024-02-21T08:16:04;9.43;;;4.57;;
80185;SDS011;69904;52.122;5.422;2024-02-21T08:18:30;8.00;;;3.85;;
80185;SDS011;69904;52.122;5.422;2024-02-21T08:20:57;9.15;;;4.53;;
80185;SDS011;69904;52.122;5.422;2024-02-21T08:23:23;10.98;;;4.45;;
80185;SDS011;69904;52.122;5.422;2024-02-21T08:25:50;9.40;;;3.92;;
80185;SDS011;69904;52.122;5.422;2024-02-21T08:28:17;12.05;;;5.13;;
80185;SDS011;69904;52.122;5.422;2024-02-21T08:30:43;10.55;;;4.75;;
80185;SDS011;69904;52.122;5.422;2024-02-21T08:33:15;8.35;;;4.50;;
80185;SDS011;69904;52.122;5.422;2024-02-21T08:35:42;8.15;;;4.85;;
80185;SDS011;69904;52.122;5.422;2024-02-21T08:38:09;12.35;;;4.55;;
80185;SDS011;69904;52.122;5.422;2024-02-21T08:40:36;9.45;;;4.88;;
80185;SDS011;69904;52.122;5.422;2024-02-21T08:43:03;9.60;;;5.50;;
80185;SDS011;69904;52.122;5.422;2024-02-21T08:45:30;12.68;;;6.35;;
80185;SDS011;69904;52.122;5.422;2024-02-21T08:47:56;14.38;;;5.15;;
80185;SDS011;69904;52.122;5.422;2024-02-21T08:50:23;8.80;;;4.63;;
80185;SDS011;69904;52.122;5.422;2024-02-21T08:52:54;8.57;;;4.45;;
80185;SDS011;69904;52.122;5.422;2024-02-21T08:55:21;9.77;;;4.95;;
80185;SDS011;69904;52.122;5.422;2024-02-21T08:57:48;12.30;;;4.85;;
80185;SDS011;69904;52.122;5.422;2024-02-21T09:00:15;9.82;;;4.05;;
80185;SDS011;69904;52.122;5.422;2024-02-21T09:02:42;10.73;;;4.22;;
80185;SDS011;69904;52.122;5.422;2024-02-21T09:05:09;8.30;;;4.30;;
80185;SDS011;69904;52.122;5.422;2024-02-21T09:07:36;6.63;;;3.55;;
80185;SDS011;69904;52.122;5.422;2024-02-21T09:10:03;9.27;;;4.43;;
80185;SDS011;69904;52.122;5.422;2024-02-21T09:12:30;11.27;;;5.00;;
80185;SDS011;69904;52.122;5.422;2024-02-21T09:14:56;9.15;;;3.53;;
80185;SDS011;69904;52.122;5.422;2024-02-21T09:17:23;11.57;;;4.53;;
80185;SDS011;69904;52.122;5.422;2024-02-21T09:19:51;9.88;;;4.60;;
80185;SDS011;69904;52.122;5.422;2024-02-21T09:22:18;7.57;;;3.53;;
80185;SDS011;69904;52.122;5.422;2024-02-21T09:24:45;9.60;;;4.22;;
80185;SDS011;69904;52.122;5.422;2024-02-21T09:27:11;10.98;;;3.70;;
80185;SDS011;69904;52.122;5.422;2024-02-21T09:29:38;9.77;;;3.65;;
80185;SDS011;69904;52.122;5.422;2024-02-21T09:32:06;7.05;;;3.60;;
80185;SDS011;69904;52.122;5.422;2024-02-21T09:34:32;7.13;;;3.25;;
80185;SDS011;69904;52.122;5.422;2024-02-21T09:36:59;10.50;;;3.83;;
80185;SDS011;69904;52.122;5.422;2024-02-21T09:39:25;8.35;;;3.33;;
80185;SDS011;69904;52.122;5.422;2024-02-21T09:41:59;7.28;;;3.97;;
80185;SDS011;69904;52.122;5.422;2024-02-21T09:44:32;8.13;;;3.35;;
80185;SDS011;69904;52.122;5.422;2024-02-21T09:47:02;10.68;;;4.40;;
80185;SDS011;69904;52.122;5.422;2024-02-21T09:52:03;6.78;;;3.20;;
80185;SDS011;69904;52.122;5.422;2024-02-21T09:54:32;6.32;;;3.55;;
80185;SDS011;69904;52.122;5.422;2024-02-21T09:57:00;6.20;;;3.00;;
80185;SDS011;69904;52.122;5.422;2024-02-21T10:01:57;7.20;;;3.40;;
80185;SDS011;69904;52.122;5.422;2024-02-21T10:04:27;8.10;;;3.72;;
80185;SDS011;69904;52.122;5.422;2024-02-21T10:06:54;5.35;;;2.88;;
80185;SDS011;69904;52.122;5.422;2024-02-21T10:09:21;9.05;;;3.85;;
80185;SDS011;69904;52.122;5.422;2024-02-21T10:11:55;4.78;;;2.67;;
80185;SDS011;69904;52.122;5.422;2024-02-21T10:14:22;7.18;;;2.85;;
80185;SDS011;69904;52.122;5.422;2024-02-21T10:16:56;7.38;;;3.05;;
80185;SDS011;69904;52.122;5.422;2024-02-21T10:19:25;6.53;;;2.72;;
80185;SDS011;69904;52.122;5.422;2024-02-21T10:22:05;6.72;;;2.75;;
80185;SDS011;69904;52.122;5.422;2024-02-21T10:24:34;8.30;;;2.58;;
80185;SDS011;69904;52.122;5.422;2024-02-21T10:27:04;5.70;;;2.78;;
80185;SDS011;69904;52.122;5.422;2024-02-21T10:29:34;7.15;;;3.38;;
80185;SDS011;69904;52.122;5.422;2024-02-21T10:32:09;6.30;;;3.17;;
80185;SDS011;69904;52.122;5.422;2024-02-21T10:34:37;4.35;;;2.40;;
80185;SDS011;69904;52.122;5.422;2024-02-21T10:37:09;7.00;;;2.92;;
80185;SDS011;69904;52.122;5.422;2024-02-21T10:39:37;10.48;;;2.97;;
80185;SDS011;69904;52.122;5.422;2024-02-21T10:42:05;5.85;;;2.13;;
80185;SDS011;69904;52.122;5.422;2024-02-21T10:44:32;6.03;;;3.17;;
80185;SDS011;69904;52.122;5.422;2024-02-21T10:47:04;10.77;;;3.17;;
80185;SDS011;69904;52.122;5.422;2024-02-21T10:49:36;6.72;;;2.75;;
80185;SDS011;69904;52.122;5.422;2024-02-21T10:57:25;4.88;;;2.28;;
80185;SDS011;69904;52.122;5.422;2024-02-21T10:59:54;4.13;;;2.55;;
80185;SDS011;69904;52.122;5.422;2024-02-21T11:02:21;3.72;;;1.77;;
80185;SDS011;69904;52.122;5.422;2024-02-21T11:04:48;6.35;;;2.53;;
80185;SDS011;69904;52.122;5.422;2024-02-21T11:07:17;4.68;;;2.63;;
80185;SDS011;69904;52.122;5.422;2024-02-21T11:09:50;5.25;;;2.90;;
80185;SDS011;69904;52.122;5.422;2024-02-21T11:12:22;3.45;;;2.30;;
80185;SDS011;69904;52.122;5.422;2024-02-21T11:14:49;4.15;;;2.40;;
80185;SDS011;69904;52.122;5.422;2024-02-21T11:17:16;6.60;;;3.03;;
80185;SDS011;69904;52.122;5.422;2024-02-21T11:19:44;5.68;;;2.70;;
80185;SDS011;69904;52.122;5.422;2024-02-21T11:24:43;4.28;;;2.10;;
80185;SDS011;69904;52.122;5.422;2024-02-21T11:27:16;4.28;;;2.65;;
80185;SDS011;69904;52.122;5.422;2024-02-21T11:29:47;3.45;;;3.05;;
80185;SDS011;69904;52.122;5.422;2024-02-21T11:32:19;5.32;;;3.33;;
80185;SDS011;69904;52.122;5.422;2024-02-21T11:34:53;6.95;;;3.28;;
80185;SDS011;69904;52.122;5.422;2024-02-21T11:37:21;5.22;;;2.83;;
80185;SDS011;69904;52.122;5.422;2024-02-21T11:39:51;6.15;;;3.25;;
80185;SDS011;69904;52.122;5.422;2024-02-21T11:42:19;4.78;;;3.05;;
80185;SDS011;69904;52.122;5.422;2024-02-21T11:44:46;4.95;;;3.30;;
80185;SDS011;69904;52.122;5.422;2024-02-21T11:47:13;8.45;;;3.22;;
80185;SDS011;69904;52.122;5.422;2024-02-21T11:49:44;4.65;;;2.95;;
80185;SDS011;69904;52.122;5.422;2024-02-21T11:52:12;7.18;;;2.97;;
80185;SDS011;69904;52.122;5.422;2024-02-21T11:54:41;5.90;;;2.95;;
80185;SDS011;69904;52.122;5.422;2024-02-21T11:57:08;4.90;;;3.38;;
80185;SDS011;69904;52.122;5.422;2024-02-21T11:59:39;7.53;;;3.45;;
80185;SDS011;69904;52.122;5.422;2024-02-21T12:02:06;4.07;;;2.47;;
80185;SDS011;69904;52.122;5.422;2024-02-21T12:04:33;6.72;;;3.53;;
80185;SDS011;69904;52.122;5.422;2024-02-21T12:06:59;7.72;;;3.22;;
80185;SDS011;69904;52.122;5.422;2024-02-21T12:09:26;6.25;;;2.80;;
80185;SDS011;69904;52.122;5.422;2024-02-21T12:12:03;5.07;;;3.00;;
80185;SDS011;69904;52.122;5.422;2024-02-21T12:14:32;7.82;;;3.60;;
80185;SDS011;69904;52.122;5.422;2024-02-21T12:17:00;7.75;;;3.28;;
80185;SDS011;69904;52.122;5.422;2024-02-21T12:19:30;8.10;;;3.70;;
80185;SDS011;69904;52.122;5.422;2024-02-21T12:21:58;6.35;;;2.60;;
80185;SDS011;69904;52.122;5.422;2024-02-21T12:24:26;6.82;;;3.15;;
80185;SDS011;69904;52.122;5.422;2024-02-21T12:26:54;8.70;;;2.95;;
80185;SDS011;69904;52.122;5.422;2024-02-21T12:29:22;4.93;;;2.83;;
80185;SDS011;69904;52.122;5.422;2024-02-21T12:31:51;7.15;;;3.45;;
80185;SDS011;69904;52.122;5.422;2024-02-21T12:34:17;7.50;;;4.03;;
80185;SDS011;69904;52.122;5.422;2024-02-21T12:36:56;3.67;;;3.00;;
80185;SDS011;69904;52.122;5.422;2024-02-21T12:39:23;5.05;;;2.67;;
80185;SDS011;69904;52.122;5.422;2024-02-21T12:41:49;4.70;;;2.97;;
80185;SDS011;69904;52.122;5.422;2024-02-21T12:44:15;4.22;;;2.70;;
80185;SDS011;69904;52.122;5.422;2024-02-21T12:46:44;4.50;;;3.00;;
80185;SDS011;69904;52.122;5.422;2024-02-21T12:49:11;5.80;;;3.17;;
80185;SDS011;69904;52.122;5.422;2024-02-21T12:51:37;5.20;;;2.70;;
80185;SDS011;69904;52.122;5.422;2024-02-21T12:54:05;7.50;;;3.30;;
80185;SDS011;69904;52.122;5.422;2024-02-21T12:56:32;5.68;;;2.95;;
80185;SDS011;69904;52.122;5.422;2024-02-21T12:58:58;3.53;;;2.47;;
80185;SDS011;69904;52.122;5.422;2024-02-21T13:01:25;5.75;;;2.80;;
80185;SDS011;69904;52.122;5.422;2024-02-21T13:03:52;5.18;;;2.60;;
80185;SDS011;69904;52.122;5.422;2024-02-21T13:06:20;7.78;;;3.28;;
80185;SDS011;69904;52.122;5.422;2024-02-21T13:08:46;6.18;;;2.25;;
80185;SDS011;69904;52.122;5.422;2024-02-21T13:11:13;9.23;;;2.40;;
80185;SDS011;69904;52.122;5.422;2024-02-21T13:13:40;5.47;;;2.63;;
80185;SDS011;69904;52.122;5.422;2024-02-21T13:16:06;3.63;;;2.40;;
80185;SDS011;69904;52.122;5.422;2024-02-21T13:18:34;4.75;;;2.60;;
80185;SDS011;69904;52.122;5.422;2024-02-21T13:21:04;6.43;;;2.60;;
80185;SDS011;69904;52.122;5.422;2024-02-21T13:23:32;7.35;;;2.78;;
80185;SDS011;69904;52.122;5.422;2024-02-21T13:28:26;9.20;;;2.22;;
80185;SDS011;69904;52.122;5.422;2024-02-21T13:30:52;5.55;;;1.95;;
80185;SDS011;69904;52.122;5.422;2024-02-21T13:33:19;4.63;;;2.28;;
80185;SDS011;69904;52.122;5.422;2024-02-21T13:35:45;3.83;;;2.42;;
80185;SDS011;69904;52.122;5.422;2024-02-21T13:38:12;4.00;;;2.17;;
80185;SDS011;69904;52.122;5.422;2024-02-21T13:40:39;4.00;;;1.98;;
80185;SDS011;69904;52.122;5.422;2024-02-21T13:43:08;9.13;;;2.45;;
80185;SDS011;69904;52.122;5.422;2024-02-21T13:45:37;6.25;;;2.90;;
80185;SDS011;69904;52.122;5.422;2024-02-21T13:48:03;6.40;;;2.28;;
80185;SDS011;69904;52.122;5.422;2024-02-21T13:50:32;8.10;;;2.00;;
80185;SDS011;69904;52.122;5.422;2024-02-21T13:57:59;5.22;;;1.90;;
80185;SDS011;69904;52.122;5.422;2024-02-21T14:00:25;6.43;;;1.65;;
80185;SDS011;69904;52.122;5.422;2024-02-21T14:02:53;5.70;;;1.70;;
80185;SDS011;69904;52.122;5.422;2024-02-21T14:05:20;3.28;;;1.85;;
80185;SDS011;69904;52.122;5.422;2024-02-21T14:07:47;6.78;;;1.70;;
80185;SDS011;69904;52.122;5.422;2024-02-21T14:10:14;5.25;;;2.13;;
80185;SDS011;69904;52.122;5.422;2024-02-21T14:12:40;2.60;;;2.03;;
80185;SDS011;69904;52.122;5.422;2024-02-21T14:15:06;3.92;;;2.15;;
80185;SDS011;69904;52.122;5.422;2024-02-21T14:17:33;2.70;;;1.23;;
80185;SDS011;69904;52.122;5.422;2024-02-21T14:20:00;7.07;;;1.77;;
80185;SDS011;69904;52.122;5.422;2024-02-21T14:22:26;4.15;;;1.88;;
80185;SDS011;69904;52.122;5.422;2024-02-21T14:24:53;4.15;;;2.13;;
80185;SDS011;69904;52.122;5.422;2024-02-21T14:27:19;4.45;;;1.83;;
80185;SDS011;69904;52.122;5.422;2024-02-21T14:29:46;4.28;;;1.73;;
80185;SDS011;69904;52.122;5.422;2024-02-21T14:32:12;3.50;;;1.40;;
80185;SDS011;69904;52.122;5.422;2024-02-21T14:34:39;5.65;;;2.03;;
80185;SDS011;69904;52.122;5.422;2024-02-21T14:37:05;2.58;;;1.67;;
80185;SDS011;69904;52.122;5.422;2024-02-21T14:39:32;3.85;;;1.65;;
80185;SDS011;69904;52.122;5.422;2024-02-21T14:42:01;8.38;;;2.10;;
80185;SDS011;69904;52.122;5.422;2024-02-21T14:44:27;4.40;;;1.65;;
80185;SDS011;69904;52.122;5.422;2024-02-21T14:46:54;4.78;;;1.88;;
80185;SDS011;69904;52.122;5.422;2024-02-21T14:49:20;4.53;;;2.10;;
80185;SDS011;69904;52.122;5.422;2024-02-21T14:51:47;3.75;;;2.08;;
80185;SDS011;69904;52.122;5.422;2024-02-21T14:54:13;4.43;;;1.65;;
80185;SDS011;69904;52.122;5.422;2024-02-21T14:56:40;6.60;;;1.63;;
80185;SDS011;69904;52.122;5.422;2024-02-21T14:59:06;5.03;;;1.85;;
80185;SDS011;69904;52.122;5.422;2024-02-21T15:01:43;2.67;;;1.52;;
80185;SDS011;69904;52.122;5.422;2024-02-21T15:04:10;2.95;;;1.88;;
80185;SDS011;69904;52.122;5.422;2024-02-21T15:06:36;3.17;;;1.70;;
80185;SDS011;69904;52.122;5.422;2024-02-21T15:11:32;4.07;;;1.65;;
80185;SDS011;69904;52.122;5.422;2024-02-21T15:13:59;4.82;;;2.10;;
80185;SDS011;69904;52.122;5.422;2024-02-21T15:16:25;2.45;;;1.75;;
80185;SDS011;69904;52.122;5.422;2024-02-21T15:18:52;2.92;;;1.77;;
80185;SDS011;69904;52.122;5.422;2024-02-21T15:21:19;3.00;;;1.83;;
80185;SDS011;69904;52.122;5.422;2024-02-21T15:23:45;3.45;;;1.88;;